Time;durP1;ratioP1;P1;durP2;ratioP2;P2;SDS_P1;SDS_P2;PMS_P1;PMS_P2;Temp;Humidity;BMP_temperature;BMP_pressure;BME280_temperature;BME280_humidity;BME280_pressure;Samples;Min_cycle;Max_cycle;Signal;HPM_P1;HPM_P2
2022/08/21 00:00:07;;;;;;;6.07;1.55;;;25.80;64.70;;;;;;10903707;32;20396;-68
2022/08/21 00:06:14;;;;;;;1.75;1.10;;;25.80;64.60;;;;;;10907123;32;20325;-68
2022/08/21 00:12:16;;;;;;;1.80;1.17;;;25.70;64.60;;;;;;10904583;32;20046;-68
2022/08/21 00:18:19;;;;;;;1.75;0.82;;;25.60;64.70;;;;;;10905592;32;20054;-68
2022/08/21 00:24:22;;;;;;;2.15;1.17;;;25.60;64.80;;;;;;10906980;32;20396;-68
2022/08/21 00:30:26;;;;;;;2.62;1.20;;;25.50;65.00;;;;;;10904565;32;20422;-68
2022/08/21 00:36:28;;;;;;;1.05;0.73;;;25.50;65.30;;;;;;10904020;32;20049;-68
2022/08/21 00:42:30;;;;;;;1.60;0.80;;;25.40;65.40;;;;;;10903678;32;20030;-68
2022/08/21 00:48:33;;;;;;;1.90;1.33;;;25.30;65.60;;;;;;10903209;32;20106;-68
2022/08/21 00:54:38;;;;;;;2.83;1.35;;;25.30;65.70;;;;;;10903039;32;20095;-68
2022/08/21 01:00:43;;;;;;;1.85;1.30;;;25.20;65.80;;;;;;10902535;32;20065;-68
2022/08/21 01:06:45;;;;;;;1.10;0.77;;;25.10;66.00;;;;;;10905589;32;20335;-69
2022/08/21 01:12:47;;;;;;;3.05;1.30;;;25.00;66.10;;;;;;10901621;32;20019;-68
2022/08/21 01:18:50;;;;;;;2.67;1.58;;;25.10;66.20;;;;;;10899695;32;20023;-69
2022/08/21 01:24:52;;;;;;;4.18;1.83;;;25.10;66.10;;;;;;10900835;32;20023;-68
2022/08/21 01:31:42;;;;;;;2.37;1.17;;;25.10;66.10;;;;;;10904825;32;20045;-68
2022/08/21 01:37:46;;;;;;;2.65;1.33;;;24.90;66.40;;;;;;10891399;32;20328;-69
2022/08/21 01:43:48;;;;;;;4.82;1.77;;;24.80;66.60;;;;;;10904552;32;20046;-69
2022/08/21 01:49:51;;;;;;;3.08;1.73;;;24.80;66.60;;;;;;10904290;32;20023;-69
2022/08/21 01:55:53;;;;;;;2.47;1.42;;;24.80;66.80;;;;;;10902239;32;20077;-69
2022/08/21 02:01:55;;;;;;;1.58;1.48;;;24.80;66.80;;;;;;10902104;32;20057;-68
2022/08/21 02:07:57;;;;;;;3.40;1.45;;;24.80;66.80;;;;;;10903892;32;20051;-69
2022/08/21 02:13:59;;;;;;;4.12;2.03;;;24.70;67.00;;;;;;10901684;32;20309;-68
2022/08/21 02:20:01;;;;;;;2.12;1.40;;;24.70;67.20;;;;;;10901035;32;20023;-69
2022/08/21 02:26:06;;;;;;;0.85;0.80;;;24.60;67.20;;;;;;10903759;32;20394;-68
2022/08/21 02:32:08;;;;;;;7.35;1.90;;;24.30;67.50;;;;;;10907188;32;20027;-68
2022/08/21 02:38:14;;;;;;;2.80;1.67;;;24.30;67.70;;;;;;10910778;32;20057;-68
2022/08/21 02:44:16;;;;;;;1.90;1.48;;;24.20;67.70;;;;;;10910485;32;20053;-69
2022/08/21 02:50:28;;;;;;;2.30;1.45;;;24.10;67.80;;;;;;10910106;32;20430;-68
2022/08/21 02:56:31;;;;;;;2.60;1.55;;;24.00;68.00;;;;;;10910018;32;20039;-68
2022/08/21 03:02:34;;;;;;;2.58;1.85;;;24.10;68.00;;;;;;10909857;32;20050;-68
2022/08/21 03:08:37;;;;;;;2.87;1.52;;;24.10;67.90;;;;;;10909490;32;20023;-68
2022/08/21 03:14:40;;;;;;;3.62;1.40;;;24.20;68.50;;;;;;10909345;32;20024;-69
2022/08/21 03:20:42;;;;;;;2.60;1.52;;;24.20;68.50;;;;;;10907886;32;20039;-68
2022/08/21 03:26:44;;;;;;;3.17;2.08;;;24.20;68.30;;;;;;10907258;32;20027;-68
2022/08/21 03:32:48;;;;;;;2.70;1.55;;;24.00;68.60;;;;;;10906686;32;20050;-69
2022/08/21 03:38:50;;;;;;;2.83;1.48;;;23.90;68.60;;;;;;10908504;32;20019;-69
2022/08/21 03:44:52;;;;;;;1.92;1.15;;;24.00;68.60;;;;;;10905365;32;20023;-69
2022/08/21 03:50:54;;;;;;;3.60;1.70;;;24.00;68.60;;;;;;10908276;32;20352;-69
2022/08/21 03:56:56;;;;;;;2.30;1.33;;;23.90;68.60;;;;;;10906780;32;20092;-68
2022/08/21 04:02:58;;;;;;;2.92;1.77;;;23.80;68.90;;;;;;10908001;32;20046;-68
2022/08/21 04:09:01;;;;;;;3.65;2.20;;;23.80;69.30;;;;;;10907466;32;20065;-69
2022/08/21 04:15:03;;;;;;;3.03;1.77;;;23.80;69.20;;;;;;10907414;32;20050;-68
2022/08/21 04:21:07;;;;;;;2.65;2.00;;;23.70;69.30;;;;;;10905224;32;20057;-68
2022/08/21 04:27:09;;;;;;;1.23;1.05;;;23.60;69.30;;;;;;10916934;27;20061;-68
2022/08/21 04:33:11;;;;;;;2.50;1.50;;;23.60;69.40;;;;;;10968638;32;20022;-68
2022/08/21 04:39:13;;;;;;;3.08;1.73;;;23.60;69.40;;;;;;10968548;32;20015;-68
2022/08/21 04:45:39;;;;;;;2.35;1.30;;;23.70;69.30;;;;;;10981413;32;20019;-68
2022/08/21 04:51:41;;;;;;;3.08;1.75;;;23.70;69.30;;;;;;10977235;32;20026;-68
2022/08/21 04:57:44;;;;;;;3.53;1.55;;;23.70;69.20;;;;;;10977878;32;20388;-68
2022/08/21 05:03:48;;;;;;;3.95;2.33;;;23.70;69.40;;;;;;10980981;32;20026;-68
2022/08/21 05:10:37;;;;;;;;;;;23.80;69.40;;;;;;10981074;32;20377;-68
2022/08/21 05:16:47;;;;;;;3.28;2.00;;;23.80;69.40;;;;;;10980725;32;19926;-68
2022/08/21 05:22:50;;;;;;;2.37;1.98;;;23.80;69.30;;;;;;10980346;32;20092;-69
2022/08/21 05:28:53;;;;;;;2.67;1.52;;;23.70;69.40;;;;;;10980117;32;20049;-69
2022/08/21 05:34:55;;;;;;;4.12;2.45;;;23.70;69.40;;;;;;10978693;32;20049;-69
2022/08/21 05:40:59;;;;;;;3.60;2.03;;;23.80;69.30;;;;;;10978332;32;20023;-69
2022/08/21 05:47:09;;;;;;;6.00;1.85;;;23.80;69.20;;;;;;10977612;32;20076;-69
2022/08/21 05:53:12;;;;;;;2.65;1.70;;;23.80;69.20;;;;;;10979570;32;20064;-69
2022/08/21 05:59:14;;;;;;;2.12;1.75;;;23.80;69.20;;;;;;10979602;32;20421;-69
2022/08/21 06:05:18;;;;;;;6.50;2.22;;;23.90;69.00;;;;;;10978584;32;20025;-68
2022/08/21 06:11:47;;;;;;;2.85;1.70;;;24.00;68.90;;;;;;10987401;32;20023;-69
2022/08/21 06:17:49;;;;;;;2.10;1.35;;;24.20;68.70;;;;;;10983596;32;20026;-71
2022/08/21 06:23:51;;;;;;;2.03;1.20;;;24.30;68.60;;;;;;10986824;32;20049;-68
2022/08/21 06:30:33;;;;;;;2.25;1.27;;;24.40;68.40;;;;;;10796866;33;20344;-68
2022/08/21 06:36:35;;;;;;;1.25;0.98;;;24.50;68.20;;;;;;10796213;33;20064;-68
2022/08/21 06:42:37;;;;;;;1.58;0.88;;;24.70;68.00;;;;;;10796438;33;20016;-68
2022/08/21 06:48:40;;;;;;;2.15;1.02;;;24.80;67.60;;;;;;10969417;32;20034;-71
2022/08/21 06:54:42;;;;;;;0.88;0.62;;;25.00;67.40;;;;;;10983203;32;20065;-70
2022/08/21 07:00:48;;;;;;;1.05;0.80;;;25.10;67.00;;;;;;10982624;32;20054;-69
2022/08/21 07:06:52;;;;;;;1.27;0.95;;;25.20;66.70;;;;;;10968490;32;20035;-70
2022/08/21 07:12:54;;;;;;;1.15;0.80;;;25.30;66.50;;;;;;10982375;32;20072;-70
2022/08/21 07:18:56;;;;;;;0.95;0.62;;;25.40;66.30;;;;;;10983131;32;20056;-69
2022/08/21 07:24:58;;;;;;;1.62;0.60;;;25.50;66.20;;;;;;10984328;32;20026;-69
2022/08/21 07:31:03;;;;;;;0.82;0.52;;;25.60;66.20;;;;;;10984238;32;20035;-70
2022/08/21 07:37:06;;;;;;;1.10;0.75;;;25.80;65.90;;;;;;10983670;32;20057;-70
2022/08/21 07:43:08;;;;;;;2.05;0.77;;;25.80;65.50;;;;;;10984036;32;20041;-70
2022/08/21 07:49:11;;;;;;;1.48;0.70;;;25.90;65.30;;;;;;10970327;32;20386;-69
2022/08/21 07:55:15;;;;;;;1.12;0.60;;;25.90;65.00;;;;;;10983632;32;20027;-69
2022/08/21 08:01:38;;;;;;;1.85;0.98;;;26.00;64.80;;;;;;10890952;32;20050;-70
2022/08/21 08:07:40;;;;;;;4.18;0.65;;;26.20;64.50;;;;;;10901850;32;20023;-69
2022/08/21 08:13:46;;;;;;;1.33;0.88;;;26.30;64.40;;;;;;10902224;32;20050;-70
2022/08/21 08:19:48;;;;;;;0.40;0.40;;;26.30;64.10;;;;;;10904126;32;20023;-70
2022/08/21 08:25:50;;;;;;;2.62;1.77;;;26.40;63.70;;;;;;10903180;32;20062;-69
2022/08/21 08:31:52;;;;;;;2.65;1.12;;;26.40;63.90;;;;;;10898889;32;20027;-69
2022/08/21 08:37:54;;;;;;;1.12;0.90;;;26.60;63.60;;;;;;10952011;32;20437;-70
2022/08/21 08:44:03;;;;;;;2.53;1.48;;;26.70;63.20;;;;;;10981806;32;20019;-69
2022/08/21 08:50:10;;;;;;;2.10;1.17;;;26.80;62.80;;;;;;10977858;32;20039;-70
2022/08/21 08:56:13;;;;;;;1.33;0.73;;;26.90;62.50;;;;;;10977647;32;20429;-70
2022/08/21 09:02:16;;;;;;;1.35;0.73;;;27.00;62.00;;;;;;10977246;32;20026;-69
2022/08/21 09:08:44;;;;;;;1.42;0.82;;;27.10;61.50;;;;;;10967524;32;20034;-70
2022/08/21 09:15:23;;;;;;;1.02;0.80;;;27.30;61.00;;;;;;10980897;32;20433;-70
2022/08/21 09:21:33;;;;;;;5.22;1.42;;;27.40;60.50;;;;;;10980560;32;20227;-68
2022/08/21 09:27:36;;;;;;;2.28;1.08;;;27.50;59.90;;;;;;10948343;32;20439;-69
2022/08/21 09:33:38;;;;;;;2.20;1.08;;;27.60;59.70;;;;;;10788532;33;20020;-70
2022/08/21 09:39:40;;;;;;;1.12;0.80;;;27.80;59.30;;;;;;10787570;33;20028;-69
2022/08/21 09:45:43;;;;;;;3.10;1.65;;;27.80;59.10;;;;;;10784511;33;20047;-70
2022/08/21 09:51:54;;;;;;;2.05;1.30;;;27.90;58.90;;;;;;10787952;33;20090;-69
2022/08/21 09:57:55;;;;;;;1.42;0.93;;;28.00;58.50;;;;;;10788019;33;20482;-69
2022/08/21 10:04:08;;;;;;;2.97;1.10;;;28.20;58.50;;;;;;10787808;33;20036;-69
2022/08/21 10:10:37;;;;;;;1.00;0.80;;;28.30;58.00;;;;;;10787619;33;20393;-69
2022/08/21 10:17:12;;;;;;;1.70;0.80;;;28.40;57.50;;;;;;10786893;32;20059;-69
2022/08/21 10:23:23;;;;;;;0.77;0.75;;;28.60;56.90;;;;;;10848366;32;20028;-69
2022/08/21 10:29:47;;;;;;;0.75;0.73;;;28.70;56.60;;;;;;10877752;32;20066;-69
2022/08/21 10:36:21;;;;;;;0.75;0.70;;;28.90;56.20;;;;;;10978996;32;20417;-69
2022/08/21 10:43:07;;;;;;;2.45;0.85;;;29.10;55.60;;;;;;10789384;33;20066;-70
2022/08/21 10:49:12;;;;;;;1.98;0.98;;;29.30;55.00;;;;;;10776314;33;20329;-70
2022/08/21 10:55:25;;;;;;;1.33;0.82;;;29.40;54.20;;;;;;10794401;33;20044;-70
2022/08/21 11:01:52;;;;;;;1.17;0.60;;;29.70;53.80;;;;;;10794953;33;20035;-70
2022/08/21 11:07:56;;;;;;;1.80;0.90;;;30.00;52.90;;;;;;10650669;33;20351;-70
2022/08/21 11:14:22;;;;;;;0.90;0.55;;;30.20;52.40;;;;;;10645399;33;20095;-69
2022/08/21 11:20:30;;;;;;;2.55;0.95;;;30.40;52.20;;;;;;10830408;32;20024;-70
2022/08/21 11:27:00;;;;;;;1.48;0.50;;;30.80;51.20;;;;;;10817846;32;20043;-70
2022/08/21 11:33:07;;;;;;;1.00;0.70;;;31.00;50.40;;;;;;10829934;32;20403;-70
2022/08/21 11:39:51;;;;;;;3.47;0.95;;;31.30;50.00;;;;;;10829512;32;20385;-70
2022/08/21 11:45:59;;;;;;;1.05;0.73;;;31.30;49.50;;;;;;10972430;32;20026;-69
2022/08/21 11:52:34;;;;;;;1.25;0.50;;;31.40;49.20;;;;;;10983642;32;20045;-69
2022/08/21 11:58:48;;;;;;;1.83;0.57;;;31.60;48.70;;;;;;10793738;33;20039;-69
2022/08/21 12:05:05;;;;;;;1.80;0.80;;;31.80;47.70;;;;;;10792179;33;20021;-69
2022/08/21 12:11:30;;;;;;;1.45;0.65;;;31.70;47.40;;;;;;10792593;33;20099;-69
2022/08/21 12:17:38;;;;;;;1.45;0.73;;;31.80;46.70;;;;;;10792806;33;20043;-70
2022/08/21 12:23:47;;;;;;;1.87;0.93;;;31.70;46.20;;;;;;10792063;33;20382;-69
2022/08/21 12:29:53;;;;;;;1.20;0.80;;;31.70;46.50;;;;;;10803031;27;20399;-70
2022/08/21 12:36:11;;;;;;;2.53;0.57;;;31.50;46.00;;;;;;10902429;32;20470;-70
2022/08/21 12:42:21;;;;;;;2.03;1.12;;;31.40;46.50;;;;;;10906457;32;20020;-68
2022/08/21 12:48:29;;;;;;;4.20;1.80;;;31.50;46.80;;;;;;10903003;32;20019;-69
2022/08/21 12:54:38;;;;;;;2.53;1.10;;;31.50;47.10;;;;;;10905107;32;20414;-70
2022/08/21 13:00:52;;;;;;;1.95;0.73;;;31.30;47.90;;;;;;10902083;32;20023;-69
2022/08/21 13:06:59;;;;;;;4.82;1.05;;;30.90;48.80;;;;;;10905580;32;20355;-69
2022/08/21 13:13:05;;;;;;;2.10;1.00;;;30.90;50.00;;;;;;10905304;32;20050;-70
2022/08/21 13:19:11;;;;;;;4.25;1.27;;;30.90;50.10;;;;;;10905228;32;20019;-70
2022/08/21 13:25:16;;;;;;;4.53;1.25;;;30.80;50.60;;;;;;10905146;32;20042;-69
2022/08/21 13:31:27;;;;;;;2.28;0.98;;;30.90;50.30;;;;;;10904722;32;20027;-69
2022/08/21 13:37:30;;;;;;;2.45;1.20;;;31.10;50.50;;;;;;10904632;32;20317;-70
2022/08/21 13:43:34;;;;;;;3.45;0.93;;;31.20;50.40;;;;;;10891182;32;20031;-69
2022/08/21 13:49:40;;;;;;;1.62;1.15;;;31.30;50.40;;;;;;10903448;32;20066;-69
2022/08/21 13:55:43;;;;;;;3.12;1.50;;;31.30;50.10;;;;;;10904243;32;20384;-70
2022/08/21 14:02:19;;;;;;;2.55;1.05;;;31.30;49.90;;;;;;10904153;32;20335;-69
2022/08/21 14:08:42;;;;;;;1.73;0.77;;;31.30;49.70;;;;;;10860314;32;20325;-69
2022/08/21 14:14:53;;;;;;;0.88;0.57;;;31.30;50.30;;;;;;10850274;32;20043;-70
2022/08/21 14:21:09;;;;;;;1.87;0.98;;;31.30;50.10;;;;;;10862335;32;20412;-69
2022/08/21 14:27:16;;;;;;;1.17;0.65;;;31.40;50.30;;;;;;10864905;32;20040;-69
2022/08/21 14:33:23;;;;;;;2.53;0.85;;;31.40;50.10;;;;;;10869533;32;20023;-69
2022/08/21 14:39:25;;;;;;;;;;;31.50;49.80;;;;;;10869073;32;20046;-69
2022/08/21 14:45:29;;;;;;;3.10;1.08;;;31.50;49.90;;;;;;10907138;32;19945;-69
2022/08/21 14:51:31;;;;;;;2.58;0.80;;;31.60;49.90;;;;;;10909965;32;20019;-68
2022/08/21 14:57:34;;;;;;;2.65;0.90;;;31.70;49.90;;;;;;10909406;32;20348;-68
2022/08/21 15:03:39;;;;;;;2.75;0.62;;;31.70;49.50;;;;;;10897055;32;20046;-69
2022/08/21 15:09:40;;;;;;;3.95;0.98;;;31.80;49.40;;;;;;10907354;32;20031;-69
2022/08/21 15:15:47;;;;;;;2.72;0.80;;;31.90;49.20;;;;;;10907664;32;20098;-69
2022/08/21 15:21:49;;;;;;;0.70;0.60;;;31.90;48.90;;;;;;10907390;32;20358;-69
2022/08/21 15:27:51;;;;;;;1.95;0.62;;;32.10;48.80;;;;;;10906170;32;20031;-69
2022/08/21 15:33:53;;;;;;;0.75;0.55;;;32.10;48.40;;;;;;10909157;32;20015;-69
2022/08/21 15:39:56;;;;;;;1.30;0.68;;;32.20;48.00;;;;;;10904972;32;20027;-69
2022/08/21 15:46:00;;;;;;;1.42;0.60;;;32.30;47.60;;;;;;10905643;32;20031;-68
2022/08/21 15:52:02;;;;;;;1.15;0.75;;;32.30;47.50;;;;;;10904399;32;20054;-69
2022/08/21 15:58:05;;;;;;;2.78;0.75;;;32.30;47.60;;;;;;10903151;32;20049;-70
2022/08/21 16:04:08;;;;;;;1.50;0.60;;;32.20;47.60;;;;;;10904424;32;20276;-69
2022/08/21 16:10:13;;;;;;;1.30;0.43;;;32.20;46.80;;;;;;10907630;32;20027;-69
2022/08/21 16:16:35;;;;;;;2.37;0.80;;;32.20;46.30;;;;;;10907198;32;20050;-70
2022/08/21 16:22:37;;;;;;;1.35;0.55;;;32.30;46.20;;;;;;10906537;32;20384;-69
2022/08/21 16:28:45;;;;;;;0.50;0.50;;;32.20;46.50;;;;;;10905694;32;20057;-70
2022/08/21 16:34:48;;;;;;;0.95;0.68;;;32.20;46.80;;;;;;10905932;32;20050;-68
2022/08/21 16:40:53;;;;;;;1.62;0.90;;;32.30;47.40;;;;;;10891874;32;20031;-69
2022/08/21 16:46:55;;;;;;;1.17;0.70;;;32.20;47.80;;;;;;10906274;32;20046;-70
2022/08/21 16:52:57;;;;;;;1.90;0.73;;;32.30;48.10;;;;;;10892600;32;20049;-69
2022/08/21 16:58:59;;;;;;;2.05;1.12;;;32.30;48.30;;;;;;10905932;32;20019;-69
2022/08/21 17:05:02;;;;;;;2.20;1.10;;;32.40;48.40;;;;;;10905876;32;20392;-69
2022/08/21 17:11:31;;;;;;;1.92;0.77;;;32.70;48.80;;;;;;10905559;32;20072;-69
2022/08/21 17:17:34;;;;;;;1.35;0.98;;;32.40;49.50;;;;;;10899370;32;20057;-69
2022/08/21 17:23:36;;;;;;;1.08;0.77;;;32.20;49.90;;;;;;10901096;32;20081;-69
2022/08/21 17:29:39;;;;;;;3.70;0.98;;;32.10;50.10;;;;;;10919826;32;20031;-69
2022/08/21 17:35:42;;;;;;;3.85;1.23;;;32.00;50.10;;;;;;10942493;32;20041;-69
2022/08/21 17:41:45;;;;;;;2.70;1.37;;;31.70;51.00;;;;;;10942342;32;20045;-69
2022/08/21 17:47:52;;;;;;;2.22;1.00;;;31.30;51.70;;;;;;10940001;32;20065;-69
2022/08/21 17:53:54;;;;;;;;;;;31.00;52.10;;;;;;10926490;32;20058;-70
2022/08/21 17:59:56;;;;;;;3.75;1.17;;;30.80;52.50;;;;;;10941512;32;20376;-69
2022/08/21 18:05:58;;;;;;;1.45;0.60;;;30.60;52.90;;;;;;10939242;32;20041;-69
2022/08/21 18:12:01;;;;;;;8.43;1.67;;;30.40;53.50;;;;;;10906378;32;20046;-70
2022/08/21 18:18:06;;;;;;;2.62;0.50;;;30.20;53.90;;;;;;10914314;32;20057;-70
2022/08/21 18:24:08;;;;;;;0.98;0.50;;;30.10;54.10;;;;;;10938183;32;20042;-69
2022/08/21 18:30:14;;;;;;;14.55;1.45;;;30.00;54.10;;;;;;10941344;32;20022;-70
2022/08/21 18:36:17;;;;;;;6.15;1.45;;;29.90;54.40;;;;;;10938778;32;20096;-69
2022/08/21 18:42:19;;;;;;;3.62;1.52;;;29.80;54.60;;;;;;10939386;32;20031;-69
2022/08/21 18:48:21;;;;;;;7.28;2.00;;;29.80;54.90;;;;;;10938265;32;20050;-69
2022/08/21 18:54:26;;;;;;;3.75;1.33;;;29.60;55.30;;;;;;10938844;32;20023;-69
2022/08/21 19:00:44;;;;;;;4.12;1.40;;;29.60;55.40;;;;;;10927880;32;20045;-70
2022/08/21 19:06:46;;;;;;;3.33;1.60;;;29.50;55.50;;;;;;10937841;32;20027;-69
2022/08/21 19:12:49;;;;;;;3.97;2.03;;;29.50;55.60;;;;;;10942806;32;20014;-69
2022/08/21 19:18:51;;;;;;;3.83;1.90;;;29.30;56.10;;;;;;10944163;32;20023;-69
2022/08/21 19:24:54;;;;;;;3.65;1.80;;;29.30;56.40;;;;;;10943648;32;20053;-69
2022/08/21 19:31:12;;;;;;;9.07;2.72;;;29.20;56.80;;;;;;10943204;32;20023;-70
2022/08/21 19:37:15;;;;;;;4.07;1.92;;;29.20;57.00;;;;;;10944375;32;20058;-71
2022/08/21 19:43:18;;;;;;;4.75;1.52;;;29.10;57.00;;;;;;10906297;32;20079;-70
2022/08/21 19:49:24;;;;;;;5.87;2.10;;;29.00;57.20;;;;;;10908281;32;20304;-71
2022/08/21 19:55:26;;;;;;;2.33;1.35;;;28.90;57.70;;;;;;10894689;32;20024;-71
2022/08/21 20:01:28;;;;;;;3.78;1.95;;;28.90;58.00;;;;;;10903731;32;20036;-71
2022/08/21 20:07:32;;;;;;;2.17;1.70;;;28.90;58.20;;;;;;10902633;32;20031;-72
2022/08/21 20:13:34;;;;;;;4.18;2.40;;;28.80;59.20;;;;;;10907331;32;20285;-72
2022/08/21 20:19:37;;;;;;;2.58;1.23;;;28.70;59.60;;;;;;10907216;32;20023;-71
2022/08/21 20:25:39;;;;;;;2.70;1.65;;;28.70;59.80;;;;;;10904908;32;20046;-72
2022/08/21 20:31:43;;;;;;;2.72;1.00;;;28.60;60.20;;;;;;10571232;27;12044703;-72
2022/08/21 20:37:45;;;;;;;2.28;1.02;;;28.60;60.10;;;;;;10940291;32;20057;-72
2022/08/21 20:43:47;;;;;;;4.00;0.82;;;28.60;60.10;;;;;;10935945;32;20077;-71
2022/08/21 20:49:55;;;;;;;0.88;0.57;;;28.60;60.00;;;;;;10939447;32;20031;-72
2022/08/21 20:55:58;;;;;;;0.82;0.52;;;28.50;60.90;;;;;;10940111;32;20078;-72
2022/08/21 21:02:39;;;;;;;1.87;0.95;;;28.30;61.80;;;;;;10939987;32;20031;-72
2022/08/21 21:08:57;;;;;;;0.95;0.75;;;28.30;62.60;;;;;;10940228;32;20027;-71
2022/08/21 21:15:12;;;;;;;1.40;0.75;;;28.30;63.00;;;;;;10939544;32;20064;-72
2022/08/21 21:21:29;;;;;;;4.57;0.75;;;28.10;63.70;;;;;;10939148;32;20038;-72
2022/08/21 21:27:34;;;;;;;6.10;1.40;;;28.00;63.60;;;;;;10942195;32;20038;-71
2022/08/21 21:33:44;;;;;;;1.02;0.73;;;28.00;63.40;;;;;;10942559;32;20018;-71
2022/08/21 21:39:59;;;;;;;1.67;0.98;;;27.90;63.60;;;;;;10941742;32;20038;-71
2022/08/21 21:46:26;;;;;;;2.83;1.08;;;27.80;63.80;;;;;;10928895;32;20011;-71
2022/08/21 21:53:15;;;;;;;1.47;0.57;;;27.70;64.50;;;;;;10942165;32;20493;-71
2022/08/21 21:59:36;;;;;;;2.37;0.47;;;27.60;64.60;;;;;;10862770;32;20055;-71
2022/08/21 22:05:41;;;;;;;2.15;0.90;;;27.50;64.40;;;;;;10872434;32;20387;-71
2022/08/21 22:11:53;;;;;;;1.77;1.12;;;27.30;64.60;;;;;;10871983;32;20061;-71
2022/08/21 22:18:10;;;;;;;4.32;1.85;;;27.00;65.10;;;;;;10859982;32;20415;-71
2022/08/21 22:24:21;;;;;;;2.78;1.27;;;27.00;65.30;;;;;;10859717;32;20028;-71
2022/08/21 22:31:13;;;;;;;1.42;0.75;;;27.10;65.50;;;;;;10931635;32;20026;-71
2022/08/21 22:37:17;;;;;;;0.47;0.47;;;27.00;65.30;;;;;;10862427;32;20043;-71
2022/08/21 22:43:23;;;;;;;6.32;0.82;;;27.10;65.30;;;;;;10862651;32;20340;-71
2022/08/21 22:49:31;;;;;;;8.52;1.52;;;27.00;65.40;;;;;;10866489;32;20052;-71
2022/08/21 22:56:24;;;;;;;1.60;0.73;;;26.90;66.10;;;;;;10869276;32;20062;-71
2022/08/21 23:02:44;;;;;;;9.45;1.67;;;26.70;67.00;;;;;;10868983;32;20012;-71
2022/08/21 23:08:46;;;;;;;2.05;0.95;;;26.70;67.40;;;;;;10882115;32;20406;-71
2022/08/21 23:14:49;;;;;;;0.62;0.55;;;26.80;67.30;;;;;;10943988;32;20023;-71
2022/08/21 23:21:35;;;;;;;2.20;1.37;;;26.80;67.50;;;;;;10947194;32;20026;-71
2022/08/21 23:28:01;;;;;;;1.30;0.82;;;26.80;67.50;;;;;;10942617;32;20066;-71
2022/08/21 23:34:19;;;;;;;1.80;1.08;;;26.80;67.50;;;;;;10946956;32;20073;-71
2022/08/21 23:40:21;;;;;;;;;;;26.80;67.60;;;;;;10946862;32;20018;-70
2022/08/21 23:46:26;;;;;;;2.05;1.25;;;26.80;67.80;;;;;;10946333;32;19941;-70
2022/08/21 23:52:54;;;;;;;3.90;1.35;;;26.70;68.00;;;;;;10946197;32;20092;-70
2022/08/21 23:59:28;;;;;;;4.70;1.00;;;26.60;67.90;;;;;;10945234;32;20392;-70
